createdAt,value
2022-09-28T00:00:02.353Z,9.62
2022-09-28T00:03:38.099Z,9.54
2022-09-28T00:06:41.827Z,9.52
2022-09-28T00:09:47.208Z,9.38
2022-09-28T00:12:52.035Z,9.28
2022-09-28T00:16:07.606Z,9.29
2022-09-28T00:19:12.696Z,9.24
2022-09-28T00:22:15.451Z,9.19
2022-09-28T00:25:22.088Z,9.13
2022-09-28T00:28:31.747Z,9.03
2022-09-28T00:32:02.635Z,8.94
2022-09-28T00:35:07.975Z,8.87
2022-09-28T00:38:11.222Z,8.81
2022-09-28T00:41:17.334Z,8.82
2022-09-28T00:45:04.935Z,8.82
2022-09-28T00:48:34.085Z,8.80
2022-09-28T00:51:41.952Z,8.77
2022-09-28T00:54:47.863Z,8.90
2022-09-28T00:57:58.073Z,8.94
2022-09-28T01:01:02.413Z,9.06
2022-09-28T01:04:07.230Z,9.13
2022-09-28T01:07:12.952Z,9.30
2022-09-28T01:10:16.615Z,9.39
2022-09-28T01:13:21.634Z,9.58
2022-09-28T01:16:50.184Z,9.65
2022-09-28T01:20:22.980Z,9.73
2022-09-28T01:24:04.137Z,9.89
2022-09-28T01:27:26.971Z,9.86
2022-09-28T01:30:37.548Z,9.89
2022-09-28T01:33:42.896Z,9.92
2022-09-28T01:36:57.556Z,9.98
2022-09-28T01:40:07.512Z,10.02
2022-09-28T01:43:17.648Z,10.01
2022-09-28T01:46:24.528Z,10.13
2022-09-28T01:49:34.821Z,10.17
2022-09-28T01:52:54.240Z,10.09
2022-09-28T01:56:11.710Z,9.98
2022-09-28T01:59:23.348Z,9.95
2022-09-28T02:02:35.192Z,9.94
2022-09-28T02:05:58.698Z,10.00
2022-09-28T02:09:24.452Z,10.02
2022-09-28T02:12:35.244Z,10.08
2022-09-28T02:15:50.866Z,10.04
2022-09-28T02:18:57.676Z,10.13
2022-09-28T02:22:09.853Z,10.08
2022-09-28T02:25:46.569Z,10.21
2022-09-28T02:28:50.809Z,10.21
2022-09-28T02:31:58.143Z,10.28
2022-09-28T02:35:06.825Z,10.33
2022-09-28T02:43:12.420Z,10.40
2022-09-28T02:46:29.861Z,10.36
2022-09-28T02:49:43.339Z,10.35
2022-09-28T02:53:12.009Z,10.43
2022-09-28T02:56:27.971Z,10.37
2022-09-28T03:00:05.163Z,10.42
2022-09-28T03:03:21.005Z,10.41
2022-09-28T03:06:34.930Z,10.47
2022-09-28T03:09:56.272Z,10.38
2022-09-28T03:13:00.841Z,10.32
2022-09-28T03:16:10.456Z,10.25
2022-09-28T03:19:18.926Z,10.21
2022-09-28T03:22:23.647Z,10.30
2022-09-28T03:25:49.216Z,10.25
2022-09-28T03:28:55.142Z,10.29
2022-09-28T03:32:01.558Z,10.28
2022-09-28T03:35:05.613Z,10.32
2022-09-28T03:38:11.436Z,10.28
2022-09-28T03:41:18.719Z,10.28
2022-09-28T03:44:25.237Z,10.16
2022-09-28T03:47:28.647Z,10.11
2022-09-28T03:50:35.543Z,9.99
2022-09-28T03:53:42.549Z,9.96
2022-09-28T03:56:46.348Z,9.83
2022-09-28T03:59:52.072Z,9.83
2022-09-28T04:03:14.909Z,9.79
2022-09-28T04:06:24.277Z,9.76
2022-09-28T04:09:27.336Z,9.68
2022-09-28T04:12:51.342Z,9.59
2022-09-28T04:15:58.961Z,9.60
2022-09-28T04:19:04.286Z,9.57
2022-09-28T04:22:09.121Z,9.49
2022-09-28T04:25:13.262Z,9.44
2022-09-28T04:28:36.016Z,9.37
2022-09-28T04:31:52.053Z,9.35
2022-09-28T04:34:55.775Z,9.31
2022-09-28T04:38:02.644Z,9.26
2022-09-28T04:41:08.116Z,9.20
2022-09-28T04:44:16.510Z,9.13
2022-09-28T04:47:43.628Z,9.06
2022-09-28T04:50:56.788Z,9.02
2022-09-28T04:54:19.635Z,8.92
2022-09-28T04:57:30.897Z,9.04
2022-09-28T05:00:58.388Z,9.12
2022-09-28T05:04:05.985Z,9.22
2022-09-28T05:07:09.349Z,9.26
2022-09-28T05:10:17.563Z,9.20
2022-09-28T05:13:21.055Z,9.11
2022-09-28T05:16:27.170Z,9.16
2022-09-28T05:19:35.197Z,9.10
2022-09-28T05:22:41.680Z,9.05
2022-09-28T05:25:45.938Z,8.95
2022-09-28T05:28:51.330Z,8.90
2022-09-28T05:31:58.256Z,8.72
2022-09-28T05:35:02.208Z,8.69
2022-09-28T05:38:07.258Z,8.58
2022-09-28T05:41:15.141Z,8.56
2022-09-28T05:44:21.156Z,8.58
2022-09-28T05:47:28.367Z,8.65
2022-09-28T05:50:33.854Z,8.73
2022-09-28T05:53:40.563Z,8.83
2022-09-28T05:57:08.395Z,8.90
2022-09-28T06:00:14.715Z,9.00
2022-09-28T06:03:18.050Z,9.17
2022-09-28T06:06:48.766Z,9.40
2022-09-28T06:09:56.173Z,9.62
2022-09-28T06:13:04.499Z,9.91
2022-09-28T06:16:10.886Z,10.38
2022-09-28T06:19:31.202Z,10.89
2022-09-28T06:22:36.906Z,11.25
2022-09-28T06:25:44.390Z,11.71
2022-09-28T06:28:48.524Z,12.14
2022-09-28T06:31:56.123Z,12.56
2022-09-28T06:35:02.777Z,12.54
2022-09-28T06:38:06.738Z,12.96
2022-09-28T06:41:18.955Z,13.10
2022-09-28T06:44:28.075Z,13.15
2022-09-28T06:47:33.876Z,13.26
2022-09-28T06:50:59.362Z,13.25
2022-09-28T06:54:35.400Z,13.93
2022-09-28T06:58:04.976Z,14.35
2022-09-28T07:01:42.373Z,14.20
2022-09-28T07:04:55.024Z,13.58
2022-09-28T07:08:05.196Z,14.24
2022-09-28T07:12:13.848Z,14.12
2022-09-28T07:15:17.779Z,14.22
2022-09-28T07:18:42.815Z,14.76
2022-09-28T07:22:02.287Z,15.07
2022-09-28T07:25:32.423Z,15.18
2022-09-28T07:28:43.034Z,13.96
2022-09-28T07:32:23.484Z,14.84
2022-09-28T07:35:28.143Z,15.87
2022-09-28T07:38:34.154Z,16.01
2022-09-28T07:41:39.763Z,16.22
2022-09-28T07:44:46.102Z,16.68
2022-09-28T07:47:50.280Z,17.16
2022-09-28T07:50:57.616Z,17.21
2022-09-28T07:54:06.627Z,16.71
2022-09-28T07:57:15.310Z,16.84
2022-09-28T08:00:19.406Z,17.02
2022-09-28T08:03:22.949Z,17.16
2022-09-28T08:06:25.899Z,17.08
2022-09-28T08:09:30.414Z,16.02
2022-09-28T08:12:36.079Z,16.47
2022-09-28T08:15:52.272Z,16.14
2022-09-28T08:18:56.342Z,15.88
2022-09-28T08:22:22.133Z,15.97
2022-09-28T08:25:45.551Z,16.28
2022-09-28T08:28:59.497Z,16.00
2022-09-28T08:34:36.264Z,16.13
2022-09-28T08:37:38.616Z,16.06
2022-09-28T08:42:25.385Z,16.49
2022-09-28T08:50:00.724Z,16.28
2022-09-28T08:53:44.467Z,17.13
2022-09-28T09:02:24.550Z,17.87
2022-09-28T09:06:09.746Z,18.98
2022-09-28T09:09:25.918Z,19.20
2022-09-28T09:16:25.304Z,19.39
2022-09-28T09:19:49.715Z,19.10
2022-09-28T09:23:17.387Z,20.44
2022-09-28T09:26:40.275Z,20.41
2022-09-28T09:30:12.891Z,21.23
2022-09-28T09:33:38.975Z,20.56
2022-09-28T09:36:59.368Z,21.41
2022-09-28T09:40:30.830Z,21.16
2022-09-28T09:43:58.860Z,22.05
2022-09-28T09:47:40.596Z,21.61
2022-09-28T09:51:27.526Z,21.17
2022-09-28T09:55:19.762Z,21.23
2022-09-28T09:58:48.064Z,20.96
2022-09-28T10:01:56.132Z,20.08
2022-09-28T10:05:15.079Z,19.21
2022-09-28T10:08:29.465Z,18.92
2022-09-28T10:11:46.240Z,18.80
2022-09-28T10:15:47.946Z,18.41
2022-09-28T10:19:23.292Z,18.87
2022-09-28T10:23:44.342Z,19.04
2022-09-28T10:27:02.063Z,19.22
2022-09-28T10:30:19.556Z,18.90
2022-09-28T10:33:33.718Z,18.25
2022-09-28T10:37:09.411Z,18.41
2022-09-28T10:40:58.205Z,18.23
2022-09-28T10:44:06.849Z,18.26
2022-09-28T10:47:17.858Z,18.09
2022-09-28T10:50:25.440Z,17.91
2022-09-28T10:53:32.174Z,18.05
2022-09-28T10:56:40.012Z,18.65
2022-09-28T10:59:44.531Z,18.65
2022-09-28T11:02:53.112Z,19.49
2022-09-28T11:06:30.465Z,20.24
2022-09-28T11:09:45.865Z,22.27
2022-09-28T11:12:51.635Z,23.19
2022-09-28T11:16:30.491Z,22.31
2022-09-28T11:20:12.253Z,21.09
2022-09-28T11:23:26.917Z,20.25
2022-09-28T11:27:22.131Z,21.18
2022-09-28T11:30:45.026Z,21.43
2022-09-28T11:34:06.507Z,21.22
2022-09-28T11:37:25.210Z,21.09
2022-09-28T11:41:00.589Z,21.72
2022-09-28T11:44:32.614Z,21.08
2022-09-28T11:47:47.344Z,20.24
2022-09-28T11:51:16.068Z,20.38
2022-09-28T11:55:26.549Z,20.47
2022-09-28T11:58:41.933Z,20.34
2022-09-28T12:01:58.719Z,20.25
2022-09-28T12:05:27.558Z,19.81
2022-09-28T12:08:35.231Z,19.50
2022-09-28T12:11:51.463Z,19.27
2022-09-28T12:15:00.470Z,19.13
2022-09-28T12:18:16.178Z,18.89
2022-09-28T12:21:28.192Z,19.21
2022-09-28T12:24:45.024Z,19.07
2022-09-28T12:28:06.745Z,18.73
2022-09-28T12:31:37.713Z,19.06
2022-09-28T12:35:00.051Z,18.01
2022-09-28T12:38:24.957Z,18.52
2022-09-28T12:42:01.107Z,18.20
2022-09-28T12:45:10.376Z,17.80
2022-09-28T12:48:28.672Z,17.97
2022-09-28T12:51:48.193Z,18.16
2022-09-28T12:55:02.215Z,18.14
2022-09-28T12:58:32.862Z,18.27
2022-09-28T13:02:02.379Z,18.30
2022-09-28T13:05:28.415Z,18.31
2022-09-28T13:08:36.895Z,18.19
2022-09-28T13:12:11.215Z,18.33
2022-09-28T13:15:23.639Z,18.37
2022-09-28T13:18:46.621Z,18.19
2022-09-28T13:21:59.150Z,18.33
2022-09-28T13:25:32.159Z,18.24
2022-09-28T13:28:54.693Z,18.30
2022-09-28T13:32:03.460Z,18.13
2022-09-28T13:35:06.872Z,18.29
2022-09-28T13:38:16.619Z,18.44
2022-09-28T13:41:34.272Z,18.50
2022-09-28T13:44:54.701Z,18.55
2022-09-28T13:47:58.026Z,18.50
2022-09-28T13:51:14.851Z,18.46
2022-09-28T13:54:32.525Z,18.37
2022-09-28T13:57:35.357Z,18.18
2022-09-28T14:01:09.218Z,17.96
2022-09-28T14:04:19.753Z,17.95
2022-09-28T14:10:46.423Z,17.96
2022-09-28T14:14:08.147Z,17.86
2022-09-28T14:17:29.803Z,17.94
2022-09-28T14:20:35.425Z,17.69
2022-09-28T14:24:05.491Z,17.44
2022-09-28T14:27:16.975Z,17.58
2022-09-28T14:30:29.643Z,17.63
2022-09-28T14:33:35.094Z,17.59
2022-09-28T14:37:06.543Z,17.50
2022-09-28T14:40:36.573Z,17.35
2022-09-28T14:43:48.214Z,17.16
2022-09-28T14:47:33.919Z,17.08
2022-09-28T14:50:39.715Z,17.29
2022-09-28T14:53:42.708Z,17.21
2022-09-28T14:56:49.689Z,17.08
2022-09-28T14:59:55.428Z,16.85
2022-09-28T15:03:21.763Z,16.74
2022-09-28T15:06:29.026Z,16.47
2022-09-28T15:09:38.077Z,16.48
2022-09-28T15:12:44.800Z,16.42
2022-09-28T15:15:51.789Z,16.31
2022-09-28T15:19:02.890Z,16.37
2022-09-28T15:22:18.797Z,16.23
2022-09-28T15:25:22.635Z,16.33
2022-09-28T15:28:25.881Z,16.32
2022-09-28T15:31:34.106Z,16.33
2022-09-28T15:34:56.963Z,16.25
2022-09-28T15:38:00.005Z,16.20
2022-09-28T15:41:10.296Z,16.03
2022-09-28T15:44:30.830Z,16.06
2022-09-28T15:47:35.380Z,16.04
2022-09-28T15:51:23.008Z,15.97
2022-09-28T15:54:42.687Z,16.03
2022-09-28T15:57:49.432Z,15.90
2022-09-28T16:01:31.139Z,15.95
2022-09-28T16:04:48.254Z,15.84
2022-09-28T16:07:56.520Z,15.95
2022-09-28T16:11:11.485Z,15.79
2022-09-28T16:14:21.291Z,15.70
2022-09-28T16:17:35.772Z,15.62
2022-09-28T16:20:43.085Z,15.59
2022-09-28T16:23:56.180Z,15.59
2022-09-28T16:27:07.730Z,15.56
2022-09-28T16:30:32.989Z,15.48
2022-09-28T16:34:09.549Z,15.27
2022-09-28T16:37:44.348Z,15.26
2022-09-28T16:40:54.061Z,15.10
2022-09-28T16:44:02.397Z,15.05
2022-09-28T16:47:07.681Z,15.02
2022-09-28T16:50:19.671Z,15.04
2022-09-28T16:53:44.559Z,14.99
2022-09-28T16:56:47.609Z,15.00
2022-09-28T16:59:56.283Z,15.10
2022-09-28T17:03:05.335Z,15.03
2022-09-28T17:06:12.122Z,15.06
2022-09-28T17:09:16.165Z,15.01
2022-09-28T17:12:43.366Z,14.99
2022-09-28T17:15:50.245Z,14.93
2022-09-28T17:18:53.028Z,15.00
2022-09-28T17:21:55.844Z,14.90
2022-09-28T17:25:04.794Z,14.68
2022-09-28T17:28:18.601Z,14.48
2022-09-28T17:31:26.942Z,14.55
2022-09-28T17:34:30.542Z,14.46
2022-09-28T17:37:40.810Z,14.33
2022-09-28T17:40:50.670Z,14.30
2022-09-28T17:43:59.881Z,14.16
2022-09-28T17:47:46.122Z,14.05
2022-09-28T17:50:48.657Z,13.94
2022-09-28T17:53:54.386Z,13.80
2022-09-28T17:56:58.586Z,13.71
2022-09-28T18:00:02.094Z,13.60
2022-09-28T18:03:29.758Z,13.46
2022-09-28T18:06:38.092Z,13.35
2022-09-28T18:09:41.808Z,13.24
2022-09-28T18:12:45.633Z,13.16
2022-09-28T18:16:10.591Z,13.10
2022-09-28T18:19:13.877Z,13.03
2022-09-28T18:22:41.276Z,13.01
2022-09-28T18:25:47.415Z,12.98
2022-09-28T18:28:56.179Z,12.91
2022-09-28T18:32:01.762Z,12.85
2022-09-28T18:35:07.315Z,12.85
2022-09-28T18:38:15.569Z,12.84
2022-09-28T18:41:18.799Z,12.86
2022-09-28T18:44:23.874Z,12.86
2022-09-28T18:47:30.480Z,12.85
2022-09-28T18:50:34.393Z,12.83
2022-09-28T18:53:38.034Z,12.83
2022-09-28T18:56:41.175Z,12.86
2022-09-28T18:59:44.663Z,12.84
2022-09-28T19:02:47.967Z,12.83
2022-09-28T19:05:53.851Z,12.80
2022-09-28T19:09:01.580Z,12.76
2022-09-28T19:12:06.967Z,12.74
2022-09-28T19:15:12.910Z,12.73
2022-09-28T19:18:16.429Z,12.71
2022-09-28T19:21:24.431Z,12.64
2022-09-28T19:24:55.800Z,12.66
2022-09-28T19:28:00.126Z,12.66
2022-09-28T19:31:09.489Z,12.62
2022-09-28T19:34:30.455Z,12.59
2022-09-28T19:37:54.122Z,12.53
2022-09-28T19:40:58.785Z,12.57
2022-09-28T19:44:06.469Z,12.41
2022-09-28T19:47:11.976Z,12.45
2022-09-28T19:50:14.466Z,12.34
2022-09-28T19:53:21.858Z,12.30
2022-09-28T19:56:48.295Z,12.28
2022-09-28T19:59:53.297Z,12.25
2022-09-28T20:02:58.283Z,12.22
2022-09-28T20:06:02.180Z,12.19
2022-09-28T20:09:10.350Z,12.16
2022-09-28T20:12:14.116Z,12.17
2022-09-28T20:15:35.880Z,12.15
2022-09-28T20:18:39.527Z,12.10
2022-09-28T20:21:44.929Z,12.11
2022-09-28T20:24:54.364Z,12.12
2022-09-28T20:28:17.184Z,12.13
2022-09-28T20:31:26.273Z,12.12
2022-09-28T20:34:30.423Z,12.13
2022-09-28T20:37:37.305Z,12.12
2022-09-28T20:40:42.379Z,12.08
2022-09-28T20:43:46.814Z,12.10
2022-09-28T20:46:52.145Z,12.07
2022-09-28T20:49:56.872Z,12.05
2022-09-28T20:53:04.299Z,12.08
2022-09-28T20:56:12.871Z,12.03
2022-09-28T20:59:20.324Z,12.00
2022-09-28T21:02:24.025Z,11.96
2022-09-28T21:05:47.512Z,11.88
2022-09-28T21:09:14.782Z,11.92
2022-09-28T21:12:38.893Z,11.90
2022-09-28T21:15:43.003Z,11.84
2022-09-28T21:19:05.426Z,11.85
2022-09-28T21:22:08.318Z,11.85
2022-09-28T21:25:11.689Z,11.83
2022-09-28T21:28:36.370Z,11.82
2022-09-28T21:31:47.467Z,11.78
2022-09-28T21:34:51.063Z,11.77
2022-09-28T21:37:56.383Z,11.72
2022-09-28T21:41:05.089Z,11.70
2022-09-28T21:44:08.627Z,11.71
2022-09-28T21:47:13.346Z,11.67
2022-09-28T21:50:15.885Z,11.64
2022-09-28T21:53:18.975Z,11.64
2022-09-28T21:56:23.806Z,11.64
2022-09-28T21:59:26.593Z,11.70
2022-09-28T22:02:32.056Z,11.73
2022-09-28T22:05:37.639Z,11.75
2022-09-28T22:08:42.904Z,11.76
2022-09-28T22:11:49.042Z,11.80
2022-09-28T22:14:51.792Z,11.84
2022-09-28T22:17:58.024Z,11.81
2022-09-28T22:21:10.844Z,11.85
2022-09-28T22:24:24.648Z,11.87
2022-09-28T22:27:31.230Z,11.88
2022-09-28T22:30:38.034Z,11.91
2022-09-28T22:33:43.706Z,11.90
2022-09-28T22:37:06.348Z,11.94
2022-09-28T22:40:12.678Z,11.94
2022-09-28T22:43:16.147Z,11.93
2022-09-28T22:46:24.553Z,11.95
2022-09-28T22:49:45.542Z,11.96
2022-09-28T22:52:48.708Z,11.97
2022-09-28T22:55:51.998Z,11.98
2022-09-28T22:58:54.514Z,11.98
2022-09-28T23:01:59.487Z,12.00
2022-09-28T23:05:03.406Z,12.02
2022-09-28T23:08:06.562Z,12.01
2022-09-28T23:11:10.655Z,12.03
2022-09-28T23:14:16.917Z,12.01
2022-09-28T23:17:41.703Z,12.00
2022-09-28T23:20:44.980Z,11.96
2022-09-28T23:24:03.992Z,11.99
2022-09-28T23:27:29.583Z,11.98
2022-09-28T23:30:34.691Z,11.97
2022-09-28T23:33:42.196Z,12.02
2022-09-28T23:37:07.597Z,12.03
2022-09-28T23:40:11.204Z,12.04
2022-09-28T23:43:14.454Z,11.99
2022-09-28T23:46:20.906Z,11.92
2022-09-28T23:49:43.726Z,11.93
2022-09-28T23:52:50.974Z,11.91
2022-09-28T23:55:54.339Z,11.97
2022-09-28T23:58:57.659Z,12.02
